createdAt,value
2022-12-31T00:02:26.023Z,63.24
2022-12-31T00:04:54.801Z,62.85
2022-12-31T00:07:21.880Z,63.25
2022-12-31T00:09:50.062Z,63.05
2022-12-31T00:12:16.993Z,63.36
2022-12-31T00:14:44.285Z,63.13
2022-12-31T00:17:11.171Z,63.13
2022-12-31T00:19:38.411Z,63.37
2022-12-31T00:22:05.275Z,63.57
2022-12-31T00:24:33.127Z,63.59
2022-12-31T00:27:01.342Z,64.41
2022-12-31T00:29:28.222Z,64.90
2022-12-31T00:31:55.198Z,64.81
2022-12-31T00:34:22.297Z,64.99
2022-12-31T00:36:49.349Z,64.67
2022-12-31T00:39:16.322Z,64.54
2022-12-31T00:41:44.067Z,64.62
2022-12-31T00:44:13.406Z,64.49
2022-12-31T00:49:06.823Z,64.20
2022-12-31T00:51:33.764Z,64.58
2022-12-31T00:54:00.937Z,64.43
2022-12-31T00:56:30.833Z,64.34
2022-12-31T00:59:00.020Z,64.10
2022-12-31T01:01:31.307Z,64.42
2022-12-31T01:04:03.671Z,64.25
2022-12-31T01:06:31.243Z,64.12
2022-12-31T01:08:58.343Z,64.30
2022-12-31T01:11:29.279Z,64.25
2022-12-31T01:13:59.183Z,64.46
2022-12-31T01:16:32.074Z,64.42
2022-12-31T01:19:00.729Z,64.04
2022-12-31T01:21:28.763Z,64.31
2022-12-31T01:23:55.812Z,64.48
2022-12-31T01:26:22.744Z,64.45
2022-12-31T01:28:49.744Z,64.63
2022-12-31T01:31:20.412Z,64.14
2022-12-31T01:33:49.167Z,64.35
2022-12-31T01:36:23.564Z,64.44
2022-12-31T01:38:54.748Z,64.78
2022-12-31T01:41:24.355Z,65.04
2022-12-31T01:43:55.018Z,65.14
2022-12-31T01:46:34.919Z,64.93
2022-12-31T01:49:11.041Z,65.41
2022-12-31T01:51:42.413Z,65.56
2022-12-31T01:54:14.944Z,65.43
2022-12-31T01:56:45.050Z,65.73
2022-12-31T01:59:16.324Z,66.07
2022-12-31T02:01:43.462Z,65.98
2022-12-31T02:04:14.622Z,66.31
2022-12-31T02:06:47.919Z,66.16
2022-12-31T02:09:15.666Z,66.60
2022-12-31T02:11:42.556Z,66.63
2022-12-31T02:14:15.143Z,66.86
2022-12-31T02:16:54.548Z,67.07
2022-12-31T02:20:10.348Z,67.38
2022-12-31T02:23:06.184Z,67.41
2022-12-31T02:25:55.041Z,67.69
2022-12-31T02:28:49.865Z,67.73
2022-12-31T02:31:30.031Z,67.21
2022-12-31T02:34:03.624Z,67.11
2022-12-31T02:36:37.164Z,66.45
2022-12-31T02:39:07.394Z,66.46
2022-12-31T02:41:52.390Z,66.74
2022-12-31T02:44:25.725Z,66.42
2022-12-31T02:47:17.713Z,66.09
2022-12-31T02:50:05.098Z,65.93
2022-12-31T02:52:48.400Z,65.94
2022-12-31T02:55:25.554Z,66.30
2022-12-31T02:58:02.794Z,66.27
2022-12-31T03:01:14.644Z,66.13
2022-12-31T03:03:43.396Z,66.28
2022-12-31T03:06:13.283Z,66.14
2022-12-31T03:09:01.322Z,66.31
2022-12-31T03:11:54.272Z,66.61
2022-12-31T03:14:21.125Z,66.56
2022-12-31T03:16:49.059Z,66.50
2022-12-31T03:19:35.638Z,66.39
2022-12-31T03:22:21.281Z,66.51
2022-12-31T03:25:06.810Z,66.44
2022-12-31T03:27:33.674Z,66.21
2022-12-31T03:30:00.596Z,65.93
2022-12-31T03:32:27.484Z,66.02
2022-12-31T03:34:55.862Z,66.02
2022-12-31T03:37:22.793Z,65.78
2022-12-31T03:39:49.683Z,65.45
2022-12-31T03:42:16.519Z,65.39
2022-12-31T03:44:43.446Z,65.37
2022-12-31T03:47:10.288Z,65.23
2022-12-31T03:49:37.133Z,65.14
2022-12-31T03:52:06.600Z,64.81
2022-12-31T03:54:33.548Z,64.83
2022-12-31T03:57:00.663Z,64.53
2022-12-31T03:59:27.584Z,64.15
2022-12-31T04:01:54.599Z,64.17
2022-12-31T04:04:21.677Z,64.33
2022-12-31T04:06:48.653Z,64.09
2022-12-31T04:09:16.839Z,63.96
2022-12-31T04:11:43.666Z,63.88
2022-12-31T04:14:11.574Z,63.55
2022-12-31T04:16:38.708Z,63.57
2022-12-31T04:19:05.682Z,63.61
2022-12-31T04:21:35.140Z,63.33
2022-12-31T04:24:03.012Z,63.24
2022-12-31T04:26:31.282Z,63.31
2022-12-31T04:28:58.146Z,63.55
2022-12-31T04:31:25.197Z,63.64
2022-12-31T04:33:52.083Z,63.73
2022-12-31T04:36:18.921Z,63.62
2022-12-31T04:38:45.822Z,63.65
2022-12-31T04:41:19.580Z,64.21
2022-12-31T04:43:51.847Z,64.13
2022-12-31T04:46:22.781Z,64.31
2022-12-31T04:48:49.804Z,64.46
2022-12-31T04:51:16.777Z,64.55
2022-12-31T04:53:43.860Z,64.62
2022-12-31T04:56:11.573Z,64.49
2022-12-31T04:58:39.552Z,64.44
2022-12-31T05:01:08.341Z,64.36
2022-12-31T05:03:36.359Z,64.36
2022-12-31T05:06:07.008Z,64.34
2022-12-31T05:08:34.277Z,64.43
2022-12-31T05:11:01.599Z,64.42
2022-12-31T05:13:33.108Z,64.20
2022-12-31T05:16:01.296Z,64.22
2022-12-31T05:18:32.236Z,63.95
2022-12-31T05:20:59.291Z,64.14
2022-12-31T05:23:26.883Z,64.13
2022-12-31T05:25:53.861Z,64.16
2022-12-31T05:28:21.100Z,64.23
2022-12-31T05:30:50.090Z,64.11
2022-12-31T05:33:17.240Z,64.10
2022-12-31T05:35:46.065Z,64.08
2022-12-31T05:38:12.964Z,64.61
2022-12-31T05:40:39.819Z,64.56
2022-12-31T05:43:06.839Z,64.73
2022-12-31T05:45:34.141Z,65.07
2022-12-31T05:48:01.308Z,64.66
2022-12-31T05:50:28.238Z,64.96
2022-12-31T05:52:56.686Z,64.96
2022-12-31T05:55:24.038Z,65.09
2022-12-31T05:57:50.994Z,65.07
2022-12-31T06:00:18.045Z,65.23
2022-12-31T06:02:45.583Z,64.93
2022-12-31T06:05:12.750Z,65.29
2022-12-31T06:07:39.567Z,64.83
2022-12-31T06:10:08.882Z,64.89
2022-12-31T06:12:35.993Z,65.16
2022-12-31T06:15:03.558Z,65.21
2022-12-31T06:17:32.395Z,65.31
2022-12-31T06:19:59.795Z,65.19
2022-12-31T06:22:26.820Z,65.00
2022-12-31T06:24:53.903Z,64.90
2022-12-31T06:27:22.163Z,65.28
2022-12-31T06:29:49.385Z,65.36
2022-12-31T06:32:16.325Z,65.43
2022-12-31T06:34:43.172Z,65.75
2022-12-31T06:37:09.993Z,65.75
2022-12-31T06:39:36.980Z,65.54
2022-12-31T06:42:04.222Z,65.78
2022-12-31T06:44:32.421Z,65.32
2022-12-31T06:46:59.287Z,65.30
2022-12-31T06:49:26.142Z,65.69
2022-12-31T06:51:52.994Z,65.51
2022-12-31T06:54:20.037Z,65.23
2022-12-31T06:56:47.840Z,65.07
2022-12-31T06:59:25.857Z,65.40
2022-12-31T07:02:16.779Z,65.41
2022-12-31T07:05:06.915Z,65.19
2022-12-31T07:07:43.079Z,65.17
2022-12-31T07:10:29.771Z,65.21
2022-12-31T07:13:36.128Z,65.29
2022-12-31T07:16:25.336Z,65.35
2022-12-31T07:19:07.251Z,65.25
2022-12-31T07:21:38.208Z,65.55
2022-12-31T07:24:07.815Z,65.31
2022-12-31T07:27:03.499Z,65.69
2022-12-31T07:29:51.361Z,65.35
2022-12-31T07:32:33.150Z,65.71
2022-12-31T07:35:14.821Z,65.94
2022-12-31T07:37:51.551Z,65.87
2022-12-31T07:40:29.912Z,65.89
2022-12-31T07:43:12.924Z,65.99
2022-12-31T07:45:49.960Z,65.83
2022-12-31T07:48:24.966Z,65.98
2022-12-31T07:50:56.618Z,66.03
2022-12-31T07:53:25.516Z,66.03
2022-12-31T07:55:57.146Z,66.31
2022-12-31T07:58:40.680Z,66.12
2022-12-31T08:01:13.072Z,66.21
2022-12-31T08:04:00.041Z,66.28
2022-12-31T08:06:41.337Z,66.35
2022-12-31T08:09:26.255Z,66.17
2022-12-31T08:11:57.693Z,66.18
2022-12-31T08:14:26.545Z,66.26
2022-12-31T08:16:54.636Z,66.59
2022-12-31T08:19:26.729Z,66.50
2022-12-31T08:22:22.507Z,66.56
2022-12-31T08:25:06.493Z,66.89
2022-12-31T08:27:45.686Z,66.79
2022-12-31T08:30:16.188Z,66.95
2022-12-31T08:32:52.252Z,66.67
2022-12-31T08:35:35.450Z,66.86
2022-12-31T08:38:17.360Z,66.62
2022-12-31T08:40:59.297Z,66.52
2022-12-31T08:43:48.053Z,67.10
2022-12-31T08:46:25.914Z,67.01
2022-12-31T08:48:53.341Z,67.03
2022-12-31T08:51:23.730Z,67.30
2022-12-31T08:53:53.433Z,67.20
2022-12-31T08:56:29.845Z,67.26
2022-12-31T08:59:24.815Z,67.34
2022-12-31T09:02:27.034Z,67.24
2022-12-31T09:05:09.415Z,67.60
2022-12-31T09:07:40.620Z,67.68
2022-12-31T09:10:20.693Z,67.74
2022-12-31T09:13:04.671Z,67.92
2022-12-31T09:15:41.952Z,67.95
2022-12-31T09:18:11.531Z,68.04
2022-12-31T09:20:44.443Z,68.21
2022-12-31T09:23:13.118Z,68.01
2022-12-31T09:25:53.918Z,68.20
2022-12-31T09:28:39.281Z,68.09
2022-12-31T09:31:15.000Z,67.78
2022-12-31T09:33:52.508Z,67.83
2022-12-31T09:36:30.311Z,68.26
2022-12-31T09:39:10.790Z,68.19
2022-12-31T09:42:17.498Z,68.19
2022-12-31T09:45:28.405Z,68.45
2022-12-31T09:48:48.541Z,68.67
2022-12-31T09:51:32.174Z,68.59
2022-12-31T09:54:45.154Z,69.27
2022-12-31T09:57:36.433Z,68.87
2022-12-31T10:00:12.094Z,68.71
2022-12-31T10:02:59.606Z,68.46
2022-12-31T10:05:56.841Z,68.48
2022-12-31T10:08:48.050Z,68.50
2022-12-31T10:11:26.091Z,68.40
2022-12-31T10:14:18.069Z,68.14
2022-12-31T10:17:18.524Z,68.24
2022-12-31T10:20:25.570Z,68.04
2022-12-31T10:23:20.818Z,67.75
2022-12-31T10:26:23.130Z,67.57
2022-12-31T10:28:58.103Z,67.54
2022-12-31T10:31:40.430Z,67.53
2022-12-31T10:34:16.997Z,67.42
2022-12-31T10:36:57.112Z,67.64
2022-12-31T10:39:58.918Z,67.64
2022-12-31T10:43:18.770Z,67.32
2022-12-31T10:46:32.125Z,67.33
2022-12-31T10:49:39.719Z,67.37
2022-12-31T10:53:05.534Z,67.09
2022-12-31T10:56:05.633Z,67.14
2022-12-31T10:59:39.848Z,67.25
2022-12-31T11:02:55.849Z,67.26
2022-12-31T11:06:03.558Z,67.30
2022-12-31T11:09:08.658Z,66.98
2022-12-31T11:11:47.845Z,66.96
2022-12-31T11:14:47.696Z,66.96
2022-12-31T11:17:40.477Z,66.75
2022-12-31T11:20:28.380Z,66.42
2022-12-31T11:23:17.265Z,66.30
2022-12-31T11:25:57.606Z,65.86
2022-12-31T11:28:59.537Z,65.79
2022-12-31T11:31:57.942Z,65.41
2022-12-31T11:35:02.936Z,65.46
2022-12-31T11:37:41.922Z,65.27
2022-12-31T11:40:36.699Z,64.82
2022-12-31T11:43:21.069Z,64.35
2022-12-31T11:46:08.375Z,64.23
2022-12-31T11:48:44.173Z,63.97
2022-12-31T11:51:46.859Z,63.69
2022-12-31T11:54:50.040Z,63.71
2022-12-31T11:57:27.312Z,63.53
2022-12-31T11:59:59.210Z,63.43
2022-12-31T12:02:32.076Z,64.22
2022-12-31T12:05:10.602Z,64.17
2022-12-31T12:07:38.449Z,63.88
2022-12-31T12:10:23.369Z,63.86
2022-12-31T12:12:53.816Z,64.11
2022-12-31T12:15:27.333Z,63.91
2022-12-31T12:17:58.182Z,63.75
2022-12-31T12:20:31.863Z,64.12
2022-12-31T12:23:01.778Z,64.10
2022-12-31T12:25:39.828Z,63.90
2022-12-31T12:28:24.101Z,64.04
2022-12-31T12:30:59.270Z,64.36
2022-12-31T12:33:29.619Z,64.79
2022-12-31T12:36:08.563Z,65.22
2022-12-31T12:38:36.611Z,65.12
2022-12-31T12:41:07.641Z,64.87
2022-12-31T12:43:37.888Z,65.17
2022-12-31T12:46:17.714Z,65.41
2022-12-31T12:48:49.461Z,65.28
2022-12-31T12:51:38.440Z,65.29
2022-12-31T12:54:25.807Z,65.32
2022-12-31T12:57:04.533Z,65.78
2022-12-31T13:00:09.181Z,66.40
2022-12-31T13:03:21.959Z,65.98
2022-12-31T13:06:09.974Z,66.55
2022-12-31T13:09:01.102Z,66.77
2022-12-31T13:11:43.705Z,66.64
2022-12-31T13:14:27.630Z,66.51
2022-12-31T13:17:05.721Z,66.70
2022-12-31T13:19:44.448Z,66.70
2022-12-31T13:22:22.854Z,66.19
2022-12-31T13:25:00.294Z,66.28
2022-12-31T13:27:34.046Z,66.27
2022-12-31T13:30:07.230Z,66.44
2022-12-31T13:32:40.649Z,66.17
2022-12-31T13:35:24.528Z,66.15
2022-12-31T13:38:04.777Z,66.11
2022-12-31T13:40:45.027Z,66.03
2022-12-31T13:43:22.048Z,65.99
2022-12-31T13:46:03.339Z,66.14
2022-12-31T13:48:39.188Z,66.41
2022-12-31T13:51:14.973Z,66.14
2022-12-31T13:53:52.944Z,66.17
2022-12-31T13:56:26.708Z,66.16
2022-12-31T13:59:04.646Z,66.34
2022-12-31T14:01:38.731Z,66.25
2022-12-31T14:04:15.192Z,66.26
2022-12-31T14:06:50.127Z,66.71
2022-12-31T14:09:23.600Z,66.75
2022-12-31T14:12:18.222Z,66.96
2022-12-31T14:14:58.940Z,66.95
2022-12-31T14:17:36.380Z,67.17
2022-12-31T14:20:18.881Z,67.09
2022-12-31T14:22:57.762Z,66.90
2022-12-31T14:25:33.989Z,66.97
2022-12-31T14:28:05.107Z,66.81
2022-12-31T14:30:40.749Z,66.87
2022-12-31T14:33:45.027Z,66.81
2022-12-31T14:36:32.197Z,67.12
2022-12-31T14:39:34.508Z,67.05
2022-12-31T14:42:18.392Z,66.65
2022-12-31T14:45:04.319Z,66.53
2022-12-31T14:47:48.768Z,66.84
2022-12-31T14:50:22.058Z,66.86
2022-12-31T14:52:53.792Z,66.57
2022-12-31T14:55:28.591Z,66.81
2022-12-31T15:00:54.802Z,66.54
2022-12-31T15:03:36.995Z,66.16
2022-12-31T15:06:36.971Z,66.29
2022-12-31T15:09:23.065Z,66.27
2022-12-31T15:12:18.008Z,65.68
2022-12-31T15:15:06.341Z,66.06
2022-12-31T15:17:51.204Z,66.08
2022-12-31T15:20:44.231Z,65.71
2022-12-31T15:23:22.067Z,65.84
2022-12-31T15:25:58.134Z,65.18
2022-12-31T15:28:34.659Z,64.72
2022-12-31T15:31:11.711Z,65.12
2022-12-31T15:33:55.456Z,65.24
2022-12-31T15:36:26.085Z,65.64
2022-12-31T15:39:07.509Z,65.49
2022-12-31T15:42:10.300Z,65.09
2022-12-31T15:44:45.385Z,64.91
2022-12-31T15:47:22.120Z,65.47
2022-12-31T15:49:50.632Z,65.19
2022-12-31T15:52:25.584Z,65.58
2022-12-31T15:54:57.160Z,65.46
2022-12-31T15:57:33.179Z,65.24
2022-12-31T16:00:04.463Z,65.15
2022-12-31T16:02:31.631Z,65.56
2022-12-31T16:04:58.703Z,65.41
2022-12-31T16:07:28.523Z,65.20
2022-12-31T16:10:00.057Z,65.08
2022-12-31T16:12:39.412Z,65.13
2022-12-31T16:15:22.268Z,64.60
2022-12-31T16:18:03.484Z,64.85
2022-12-31T16:20:34.141Z,64.87
2022-12-31T16:23:03.441Z,64.82
2022-12-31T16:25:33.529Z,64.62
2022-12-31T16:28:03.800Z,64.58
2022-12-31T16:30:35.628Z,64.32
2022-12-31T16:33:07.034Z,64.37
2022-12-31T16:35:36.520Z,64.29
2022-12-31T16:38:13.921Z,64.21
2022-12-31T16:40:43.355Z,64.44
2022-12-31T16:43:26.257Z,64.14
2022-12-31T16:45:57.528Z,64.24
2022-12-31T16:48:26.348Z,63.81
2022-12-31T16:50:56.598Z,63.81
2022-12-31T16:53:27.503Z,63.67
2022-12-31T16:56:00.021Z,63.55
2022-12-31T16:58:32.460Z,63.21
2022-12-31T17:01:13.610Z,63.52
2022-12-31T17:03:45.888Z,62.89
2022-12-31T17:06:16.561Z,62.90
2022-12-31T17:08:47.538Z,62.89
2022-12-31T17:11:28.501Z,62.42
2022-12-31T17:14:07.141Z,62.20
2022-12-31T17:16:36.476Z,62.09
2022-12-31T17:19:04.359Z,62.19
2022-12-31T17:21:32.593Z,61.75
2022-12-31T17:24:04.264Z,61.18
2022-12-31T17:26:34.683Z,61.57
2022-12-31T17:29:05.716Z,61.42
2022-12-31T17:31:36.730Z,60.24
2022-12-31T17:34:29.172Z,60.93
2022-12-31T17:37:14.461Z,60.85
2022-12-31T17:39:50.622Z,60.43
2022-12-31T17:42:30.018Z,60.20
2022-12-31T17:45:02.302Z,60.32
2022-12-31T17:47:36.271Z,60.15
2022-12-31T17:50:18.203Z,59.60
2022-12-31T17:52:45.198Z,59.83
2022-12-31T17:55:12.648Z,59.65
2022-12-31T17:57:50.507Z,59.59
2022-12-31T18:00:22.268Z,59.96
2022-12-31T18:02:49.330Z,59.87
2022-12-31T18:05:19.105Z,59.71
2022-12-31T18:07:46.239Z,59.93
2022-12-31T18:10:15.658Z,59.10
2022-12-31T18:12:44.040Z,59.25
2022-12-31T18:15:16.010Z,59.09
2022-12-31T18:17:45.007Z,58.87
2022-12-31T18:20:12.575Z,59.15
2022-12-31T18:22:42.030Z,58.61
2022-12-31T18:25:12.591Z,58.76
2022-12-31T18:27:41.920Z,58.28
2022-12-31T18:30:10.852Z,57.78
2022-12-31T18:32:40.795Z,58.64
2022-12-31T18:35:33.251Z,58.25
2022-12-31T18:38:03.466Z,58.09
2022-12-31T18:40:30.481Z,57.93
2022-12-31T18:43:02.712Z,58.04
2022-12-31T18:45:31.701Z,58.13
2022-12-31T18:47:58.574Z,58.20
2022-12-31T18:50:26.781Z,57.85
2022-12-31T18:52:53.626Z,57.87
2022-12-31T18:55:33.473Z,57.85
2022-12-31T18:58:00.345Z,57.27
2022-12-31T19:00:27.240Z,57.57
2022-12-31T19:02:54.110Z,57.08
2022-12-31T19:05:24.237Z,56.95
2022-12-31T19:07:52.464Z,56.74
2022-12-31T19:10:20.216Z,56.32
2022-12-31T19:12:48.171Z,56.18
2022-12-31T19:15:25.003Z,56.06
2022-12-31T19:17:52.030Z,56.15
2022-12-31T19:20:19.111Z,55.75
2022-12-31T19:22:46.004Z,55.75
2022-12-31T19:25:23.817Z,55.18
2022-12-31T19:27:51.564Z,55.80
2022-12-31T19:30:23.253Z,55.54
2022-12-31T19:32:51.157Z,54.84
2022-12-31T19:35:19.894Z,55.22
2022-12-31T19:37:49.800Z,55.07
2022-12-31T19:40:22.042Z,55.15
2022-12-31T19:42:50.699Z,54.96
2022-12-31T19:45:22.571Z,54.93
2022-12-31T19:47:50.712Z,54.92
2022-12-31T19:50:20.915Z,53.98
2022-12-31T19:52:51.128Z,54.27
2022-12-31T19:55:22.782Z,54.15
2022-12-31T19:57:49.798Z,52.97
2022-12-31T20:00:19.639Z,53.86
2022-12-31T20:02:48.897Z,53.32
2022-12-31T20:05:19.234Z,52.64
2022-12-31T20:07:46.539Z,52.50
2022-12-31T20:10:13.867Z,52.74
2022-12-31T20:12:44.537Z,51.84
2022-12-31T20:15:11.914Z,51.99
2022-12-31T20:17:38.993Z,51.98
2022-12-31T20:20:07.597Z,51.38
2022-12-31T20:22:34.577Z,50.63
2022-12-31T20:25:01.640Z,50.74
2022-12-31T20:27:28.681Z,50.35
2022-12-31T20:29:57.023Z,50.64
2022-12-31T20:32:23.843Z,50.48
2022-12-31T20:34:50.754Z,49.62
2022-12-31T20:37:17.628Z,49.16
2022-12-31T20:39:44.469Z,49.75
2022-12-31T20:42:11.374Z,49.56
2022-12-31T20:44:38.287Z,49.15
2022-12-31T20:47:06.502Z,48.14
2022-12-31T20:50:08.977Z,48.35
2022-12-31T20:52:20.182Z,48.36
2022-12-31T20:54:47.040Z,48.56
2022-12-31T20:57:13.973Z,47.96
2022-12-31T20:59:40.981Z,47.04
2022-12-31T21:02:21.737Z,47.79
2022-12-31T21:04:50.799Z,47.46
2022-12-31T21:07:18.002Z,46.99
2022-12-31T21:09:44.890Z,47.10
2022-12-31T21:12:30.932Z,46.72
2022-12-31T21:14:58.203Z,46.13
2022-12-31T21:17:26.351Z,45.78
2022-12-31T21:19:53.221Z,45.71
2022-12-31T21:22:20.414Z,46.19
2022-12-31T21:24:47.233Z,46.21
2022-12-31T21:27:14.354Z,45.82
2022-12-31T21:30:01.873Z,44.91
2022-12-31T21:32:29.481Z,44.75
2022-12-31T21:35:39.567Z,44.99
2022-12-31T21:37:59.198Z,44.68
2022-12-31T21:40:27.897Z,44.22
2022-12-31T21:42:54.804Z,44.23
2022-12-31T21:45:21.799Z,44.78
2022-12-31T21:48:08.579Z,44.03
2022-12-31T21:50:35.575Z,44.20
2022-12-31T21:53:02.477Z,43.92
2022-12-31T21:55:47.888Z,43.61
2022-12-31T21:58:31.763Z,44.40
2022-12-31T22:01:18.716Z,44.21
2022-12-31T22:03:47.022Z,44.49
2022-12-31T22:06:20.469Z,43.93
2022-12-31T22:08:51.469Z,43.50
2022-12-31T22:11:21.226Z,44.05
2022-12-31T22:13:49.001Z,43.59
2022-12-31T22:16:17.050Z,43.18
2022-12-31T22:18:46.158Z,43.66
2022-12-31T22:21:19.224Z,43.62
2022-12-31T22:23:49.007Z,43.32
2022-12-31T22:26:18.129Z,43.52
2022-12-31T22:28:46.310Z,43.59
2022-12-31T22:31:16.126Z,43.66
2022-12-31T22:33:43.664Z,42.90
2022-12-31T22:36:15.306Z,42.97
2022-12-31T22:38:43.104Z,43.41
2022-12-31T22:41:12.905Z,43.58
2022-12-31T22:43:44.151Z,43.17
2022-12-31T22:46:14.791Z,43.26
2022-12-31T22:48:42.577Z,43.08
2022-12-31T22:51:12.989Z,42.95
2022-12-31T22:53:41.231Z,42.87
2022-12-31T22:56:10.118Z,43.01
2022-12-31T22:58:37.842Z,42.91
2022-12-31T23:01:06.185Z,43.19
2022-12-31T23:03:33.842Z,43.23
2022-12-31T23:06:01.009Z,42.76
2022-12-31T23:08:29.258Z,42.72
2022-12-31T23:11:03.608Z,43.22
2022-12-31T23:13:55.503Z,42.69
2022-12-31T23:16:42.515Z,43.56
2022-12-31T23:19:28.671Z,43.02
2022-12-31T23:22:14.260Z,42.95
2022-12-31T23:24:42.779Z,43.15
2022-12-31T23:27:11.212Z,43.40
2022-12-31T23:29:46.145Z,42.64
2022-12-31T23:32:15.135Z,42.81
2022-12-31T23:34:44.251Z,42.93
2022-12-31T23:37:11.356Z,42.64
2022-12-31T23:39:39.925Z,42.78
2022-12-31T23:42:08.361Z,43.02
2022-12-31T23:44:35.312Z,43.01
2022-12-31T23:47:02.236Z,42.74
2022-12-31T23:49:29.229Z,42.90
2022-12-31T23:51:56.211Z,42.64
2022-12-31T23:54:23.107Z,42.43
2022-12-31T23:56:49.994Z,42.48
2022-12-31T23:59:18.411Z,42.78
